Bieber, California
Current Conditions -  °F | °C
As of 3:55 PM on Saturday 20 Dec 2014 (Local Time) from KAAT Reporting Station
Light Rain Light Rain  
Wind Chill: 38°   Ceiling: 2300
Heat Index: 42°   Visibility: 9mi
Dew Point: 39°   Wind: 6mph
Humidity: 89%   Direction: 250°WSW
Pressure: 30.05"   Gusts: NA
Location:  41.12°N, 121.15°W
Report Text: KAAT 202355Z AUTO 25005KT 9SM -RA OVC023 06/04 A3005 RMK AO2 SLP177 P0003 60011 T00560039 10061 20044 53007
Loading
Personal Weather Stations






























Interactive Weather Map New forecast layout! Learn more

10-Day Weather Forecast

Advertisements
Track Severe Weather on mobile